Time;durP1;ratioP1;P1;durP2;ratioP2;P2;SDS_P1;SDS_P2;PMS_P1;PMS_P2;Temp;Humidity;BMP_temperature;BMP_pressure;BME280_temperature;BME280_humidity;BME280_pressure;Samples;Min_cycle;Max_cycle;Signal;HPM_P1;HPM_P2
2024/04/26 00:00:10;;;;;;;180.95;121.75;;;256.70;2252.80;;;;;;5452697;26;20002;-72
2024/04/26 00:02:36;;;;;;;86.03;60.22;;;256.90;2252.80;;;;;;5453584;26;20072;-72
2024/04/26 00:05:02;;;;;;;40.72;28.52;;;256.90;2252.80;;;;;;5451268;26;20444;-72
2024/04/26 00:07:28;;;;;;;45.78;31.10;;;256.90;2252.80;;;;;;5453621;26;20071;-72
2024/04/26 00:09:54;;;;;;;47.65;35.42;;;281.60;2278.40;;;;;;5451813;26;19995;-76
2024/04/26 00:12:20;;;;;;;40.65;30.27;;;281.60;2278.40;;;;;;5451060;26;20075;-72
2024/04/26 00:14:46;;;;;;;26.25;19.88;;;281.70;2278.40;;;;;;5452262;26;20003;-71
2024/04/26 00:17:12;;;;;;;25.80;20.77;;;281.70;2278.40;;;;;;5453640;26;20028;-72
2024/04/26 00:19:37;;;;;;;38.10;34.00;;;281.60;2278.40;;;;;;5452479;26;20026;-73
2024/04/26 00:22:03;;;;;;;42.25;31.45;;;281.60;2278.40;;;;;;5453300;26;20006;-72
2024/04/26 00:24:29;;;;;;;47.13;33.35;;;256.80;2252.80;;;;;;5451647;26;20003;-72
2024/04/26 00:26:55;;;;;;;40.35;28.13;;;256.80;2252.80;;;;;;5453617;26;19999;-72
2024/04/26 00:29:21;;;;;;;33.38;25.88;;;256.70;2252.80;;;;;;5451326;26;20004;-72
2024/04/26 00:31:47;;;;;;;28.88;22.60;;;256.60;2252.80;;;;;;5451922;26;20497;-72
2024/04/26 00:34:13;;;;;;;45.88;31.23;;;256.60;2252.80;;;;;;5450946;26;20009;-72
2024/04/26 00:36:40;;;;;;;34.28;24.73;;;256.50;2252.80;;;;;;5448587;26;19994;-72
2024/04/26 00:39:06;;;;;;;30.23;24.35;;;256.60;2252.80;;;;;;5448086;26;19995;-72
2024/04/26 00:41:33;;;;;;;29.55;22.90;;;256.50;2252.80;;;;;;5448325;26;20373;-71
2024/04/26 00:44:11;;;;;;;40.90;27.25;;;256.50;2252.80;;;;;;5445017;26;20013;-72
2024/04/26 00:46:43;;;;;;;39.53;25.38;;;256.40;2252.80;;;;;;5448204;26;20002;-72
2024/04/26 00:49:09;;;;;;;53.97;35.63;;;256.30;2252.80;;;;;;5447742;26;20007;-73
2024/04/26 00:51:37;;;;;;;32.17;21.63;;;256.40;2252.80;;;;;;5448425;26;20014;-72
2024/04/26 00:54:04;;;;;;;43.67;31.30;;;256.40;2252.80;;;;;;5447065;26;20013;-74
2024/04/26 00:56:30;;;;;;;35.13;26.10;;;256.40;2252.80;;;;;;5447841;26;20002;-73
2024/04/26 00:58:56;;;;;;;25.17;18.42;;;256.30;2252.80;;;;;;5447670;26;20003;-72
2024/04/26 01:01:23;;;;;;;14.85;11.30;;;256.30;2252.80;;;;;;5447573;26;20007;-73
2024/04/26 01:03:50;;;;;;;23.40;16.27;;;256.30;2252.80;;;;;;5447178;26;20079;-71
2024/04/26 01:06:17;;;;;;;20.92;15.32;;;256.00;2252.80;;;;;;5446197;26;20029;-72
2024/04/26 01:08:43;;;;;;;28.65;18.80;;;231.30;2252.80;;;;;;5446941;26;20009;-71
2024/04/26 01:11:11;;;;;;;30.02;21.23;;;231.30;2252.80;;;;;;5447791;26;20006;-72
2024/04/26 01:13:38;;;;;;;34.88;22.02;;;231.20;2252.80;;;;;;5447345;26;20002;-72
2024/04/26 01:16:05;;;;;;;31.10;23.20;;;231.20;2252.80;;;;;;5448516;26;20010;-72
2024/04/26 01:18:30;;;;;;;28.48;21.98;;;231.00;2252.80;;;;;;5433179;26;19994;-73
2024/04/26 01:20:56;;;;;;;31.60;21.08;;;230.90;2252.80;;;;;;5448173;26;20451;-72
2024/04/26 01:23:23;;;;;;;27.85;19.20;;;230.90;2252.80;;;;;;5445088;26;20406;-73
2024/04/26 01:26:02;;;;;;;26.90;18.90;;;230.80;2252.80;;;;;;5445858;26;19994;-72
2024/04/26 01:28:29;;;;;;;25.15;20.23;;;230.80;2252.80;;;;;;5447826;26;20440;-72
2024/04/26 01:30:54;;;;;;;26.85;21.88;;;230.80;2252.80;;;;;;5447982;26;20022;-72
2024/04/26 01:33:20;;;;;;;23.92;17.20;;;230.80;2252.80;;;;;;5447048;26;20330;-74
2024/04/26 01:35:46;;;;;;;24.33;18.13;;;230.80;2252.80;;;;;;5447497;26;19999;-72
2024/04/26 01:38:12;;;;;;;25.70;17.25;;;230.80;2252.80;;;;;;5447135;26;20329;-72
2024/04/26 01:40:38;;;;;;;33.83;22.10;;;230.70;2252.80;;;;;;5446833;26;19998;-72
2024/04/26 01:43:06;;;;;;;34.65;23.88;;;230.70;2252.80;;;;;;5447541;26;20457;-72
2024/04/26 01:45:32;;;;;;;33.13;23.58;;;230.70;2252.80;;;;;;5446509;26;20002;-72
2024/04/26 01:47:58;;;;;;;34.72;24.70;;;230.60;2252.80;;;;;;5445636;26;19999;-72
2024/04/26 01:50:24;;;;;;;36.28;25.38;;;230.70;2252.80;;;;;;5445245;26;19995;-72
2024/04/26 01:52:51;;;;;;;52.00;31.23;;;205.70;2252.80;;;;;;5447785;26;20456;-72
2024/04/26 01:55:17;;;;;;;48.78;29.38;;;230.50;2252.80;;;;;;5446127;26;19990;-71
2024/04/26 01:57:43;;;;;;;49.55;33.63;;;230.50;2252.80;;;;;;5447212;26;20524;-72
2024/04/26 02:00:10;;;;;;;39.47;30.20;;;230.50;2252.80;;;;;;5446810;26;19994;-72
2024/04/26 02:02:37;;;;;;;29.20;20.98;;;230.40;2252.80;;;;;;5448153;26;20014;-74
2024/04/26 02:05:03;;;;;;;25.35;19.83;;;230.40;2252.80;;;;;;5447412;26;20006;-73
2024/04/26 02:07:29;;;;;;;23.45;17.63;;;205.70;2252.80;;;;;;5448033;26;20175;-73
2024/04/26 02:09:56;;;;;;;23.50;16.17;;;205.70;2252.80;;;;;;5446213;26;19998;-72
2024/04/26 02:12:22;;;;;;;19.55;13.20;;;205.60;2252.80;;;;;;5447541;26;19995;-72
2024/04/26 02:14:48;;;;;;;19.13;13.70;;;205.60;2252.80;;;;;;5444371;26;20036;-72
2024/04/26 02:17:14;;;;;;;23.95;14.63;;;205.70;2252.80;;;;;;5447463;26;20067;-71
2024/04/26 02:19:41;;;;;;;26.25;16.35;;;205.50;2252.80;;;;;;5445718;26;20316;-72
2024/04/26 02:22:07;;;;;;;26.25;17.13;;;205.20;2252.80;;;;;;5447981;26;20009;-73
2024/04/26 02:24:33;;;;;;;25.88;18.60;;;204.90;2252.80;;;;;;5446467;26;20011;-72
2024/04/26 02:26:58;;;;;;;26.27;17.45;;;204.80;2252.80;;;;;;5447655;26;20064;-72
2024/04/26 02:29:24;;;;;;;27.88;19.83;;;180.10;2252.80;;;;;;5446225;26;20328;-73
2024/04/26 02:31:50;;;;;;;28.05;17.75;;;180.00;2252.80;;;;;;5447520;26;20003;-74
2024/04/26 02:34:16;;;;;;;29.88;20.77;;;179.90;2252.80;;;;;;5445947;26;20000;-74
2024/04/26 02:36:42;;;;;;;19.23;13.63;;;179.80;2252.80;;;;;;5446996;26;19998;-72
2024/04/26 02:39:08;;;;;;;15.18;11.02;;;179.90;2252.80;;;;;;5444526;26;20015;-72
2024/04/26 02:41:34;;;;;;;15.23;9.63;;;179.80;2252.80;;;;;;5447249;26;20005;-73
2024/04/26 02:44:03;;;;;;;13.05;9.15;;;180.10;2252.80;;;;;;5445516;26;19998;-72
2024/04/26 02:46:29;;;;;;;12.90;8.88;;;204.90;2252.80;;;;;;5447520;26;20026;-74
2024/04/26 02:48:55;;;;;;;14.07;9.25;;;205.00;2252.80;;;;;;5446028;26;19999;-72
2024/04/26 02:51:21;;;;;;;14.05;9.80;;;205.00;2252.80;;;;;;5447009;26;20010;-72
2024/04/26 02:53:47;;;;;;;13.70;10.00;;;205.00;2252.80;;;;;;5445908;26;20018;-72
2024/04/26 02:56:13;;;;;;;18.00;9.38;;;204.90;2252.80;;;;;;5446851;26;20075;-72
2024/04/26 02:58:39;;;;;;;16.77;10.65;;;204.90;2252.80;;;;;;5445169;26;19995;-70
2024/04/26 03:01:05;;;;;;;14.75;10.40;;;204.90;2252.80;;;;;;5446863;26;20394;-73
2024/04/26 03:03:31;;;;;;;15.70;10.27;;;180.10;2252.80;;;;;;5445531;26;20031;-72
2024/04/26 03:06:04;;;;;;;12.85;8.82;;;180.00;2252.80;;;;;;5447111;26;20063;-72
2024/04/26 03:08:30;;;;;;;;;;;179.90;2252.80;;;;;;5446054;26;20003;-75
2024/04/26 03:10:55;;;;;;;14.70;11.25;;;180.00;2252.80;;;;;;5446739;26;19924;-76
2024/04/26 03:13:21;;;;;;;13.88;10.48;;;180.00;2252.80;;;;;;5445436;26;20333;-72
2024/04/26 03:15:47;;;;;;;13.82;9.75;;;180.00;2252.80;;;;;;5447208;26;20007;-72
2024/04/26 03:18:13;;;;;;;13.10;8.82;;;179.90;2252.80;;;;;;5421584;26;19998;-72
2024/04/26 03:20:39;;;;;;;14.95;9.23;;;204.80;2252.80;;;;;;5446561;26;20318;-72
2024/04/26 03:23:05;;;;;;;14.15;9.07;;;204.80;2252.80;;;;;;5445719;26;20007;-72
2024/04/26 03:25:30;;;;;;;13.98;10.52;;;204.90;2252.80;;;;;;5443802;26;20010;-76
2024/04/26 03:27:56;;;;;;;20.83;13.68;;;204.80;2252.80;;;;;;5445477;26;20006;-72
2024/04/26 03:30:22;;;;;;;19.20;12.05;;;180.10;2252.80;;;;;;5445634;26;20068;-74
2024/04/26 03:32:48;;;;;;;19.67;12.50;;;204.80;2252.80;;;;;;5445704;26;19995;-73
2024/04/26 03:35:14;;;;;;;20.23;12.43;;;204.80;2252.80;;;;;;5446662;26;20639;-77
2024/04/26 03:37:39;;;;;;;23.05;15.68;;;204.80;2252.80;;;;;;5443418;26;20074;-73
2024/04/26 03:40:06;;;;;;;17.85;13.85;;;204.80;2252.80;;;;;;5446161;26;20072;-73
2024/04/26 03:42:31;;;;;;;18.70;13.20;;;180.10;2252.80;;;;;;5421927;26;19999;-74
2024/04/26 03:44:57;;;;;;;19.27;13.80;;;180.10;2252.80;;;;;;5444013;26;20005;-74
2024/04/26 03:47:23;;;;;;;17.23;11.18;;;204.80;2252.80;;;;;;5445577;26;20011;-72
2024/04/26 03:49:49;;;;;;;14.00;10.25;;;180.10;2252.80;;;;;;5445210;26;20009;-74
2024/04/26 03:52:15;;;;;;;13.43;9.75;;;204.80;2252.80;;;;;;5422128;26;19999;-71
2024/04/26 03:54:41;;;;;;;15.32;10.50;;;204.90;2252.80;;;;;;5445386;26;19990;-73
2024/04/26 03:57:06;;;;;;;14.20;10.45;;;204.80;2252.80;;;;;;5445403;26;20010;-73
2024/04/26 03:59:32;;;;;;;18.33;11.63;;;204.80;2252.80;;;;;;5445489;26;20009;-74
2024/04/26 04:01:58;;;;;;;14.75;9.95;;;204.90;2252.80;;;;;;5445344;26;20010;-72
2024/04/26 04:04:24;;;;;;;14.98;10.70;;;204.90;2252.80;;;;;;5445750;26;20009;-73
2024/04/26 04:06:50;;;;;;;13.82;9.45;;;204.90;2252.80;;;;;;5420030;26;20003;-72
2024/04/26 04:09:15;;;;;;;13.60;9.63;;;205.00;2252.80;;;;;;5445054;26;20011;-71
2024/04/26 04:11:41;;;;;;;12.50;9.05;;;205.00;2252.80;;;;;;5446289;26;19999;-72
2024/04/26 04:14:07;;;;;;;15.48;10.77;;;205.10;2252.80;;;;;;5449025;26;20006;-71
2024/04/26 04:16:33;;;;;;;13.32;9.10;;;205.20;2252.80;;;;;;5447764;26;20007;-71
2024/04/26 04:18:59;;;;;;;20.00;11.82;;;205.20;2252.80;;;;;;5448810;26;19999;-72
2024/04/26 04:21:24;;;;;;;18.73;14.45;;;205.00;2252.80;;;;;;5444841;26;19995;-72
2024/04/26 04:23:50;;;;;;;15.40;11.18;;;205.10;2252.80;;;;;;5435584;26;20007;-71
2024/04/26 04:26:16;;;;;;;11.80;8.02;;;205.20;2252.80;;;;;;5448030;26;20014;-71
2024/04/26 04:28:42;;;;;;;11.18;8.40;;;205.30;2252.80;;;;;;5448129;26;19999;-72
2024/04/26 04:31:11;;;;;;;12.38;9.00;;;205.40;2252.80;;;;;;5447710;26;20015;-71
2024/04/26 04:33:37;;;;;;;17.20;12.15;;;205.40;2252.80;;;;;;5448461;26;20577;-71
2024/04/26 04:36:03;;;;;;;15.02;10.98;;;205.40;2252.80;;;;;;5447244;26;20040;-72
2024/04/26 04:38:29;;;;;;;15.43;10.02;;;205.50;2252.80;;;;;;5448132;26;20108;-72
2024/04/26 04:40:55;;;;;;;15.75;9.70;;;205.50;2252.80;;;;;;5447777;26;20030;-71
2024/04/26 04:43:21;;;;;;;12.90;9.02;;;205.60;2252.80;;;;;;5448224;26;20014;-72
2024/04/26 04:45:47;;;;;;;14.98;12.30;;;231.10;2252.80;;;;;;5448273;26;20002;-77
2024/04/26 04:48:12;;;;;;;12.65;9.57;;;307.90;2304.00;;;;;;5448484;26;20009;-72
2024/04/26 04:50:38;;;;;;;8.68;7.70;;;358.90;2329.60;;;;;;5448356;26;20913;-76
2024/04/26 04:53:07;;;;;;;9.35;6.72;;;384.30;2329.60;;;;;;5448311;26;20448;-72
2024/04/26 04:55:33;;;;;;;9.57;7.32;;;410.00;2278.40;;;;;;5447079;26;20333;-77
2024/04/26 04:57:59;;;;;;;8.85;7.18;;;410.00;2227.20;;;;;;5447667;26;20002;-73
2024/04/26 05:00:25;;;;;;;9.25;7.88;;;435.60;2124.80;;;;;;5449322;26;19999;-71
2024/04/26 05:02:50;;;;;;;11.00;8.38;;;461.50;2022.40;;;;;;5447608;26;20011;-72
2024/04/26 05:05:16;;;;;;;8.60;7.70;;;487.20;1920.00;;;;;;5447980;26;20480;-72
2024/04/26 05:07:42;;;;;;;10.93;7.93;;;512.80;1817.60;;;;;;5448837;26;20071;-75
2024/04/26 05:10:08;;;;;;;9.48;8.48;;;537.80;1817.60;;;;;;5449747;26;19999;-72
2024/04/26 05:12:34;;;;;;;14.30;8.95;;;537.80;1817.60;;;;;;5447271;26;20006;-77
2024/04/26 05:15:02;;;;;;;10.32;9.05;;;563.20;1766.40;;;;;;5447625;26;19995;-75
2024/04/26 05:17:28;;;;;;;9.13;7.30;;;563.80;1740.80;;;;;;5447420;26;19998;-74
2024/04/26 05:19:54;;;;;;;7.68;6.88;;;589.40;1689.60;;;;;;5446177;26;20812;-72
2024/04/26 05:22:19;;;;;;;8.30;7.32;;;614.70;1638.40;;;;;;5446409;26;19994;-73
2024/04/26 05:24:45;;;;;;;11.88;10.60;;;615.00;1587.20;;;;;;5448085;26;19995;-73
2024/04/26 05:27:15;;;;;;;15.07;13.55;;;640.10;1536.00;;;;;;5447230;26;20071;-72
2024/04/26 05:29:44;;;;;;;18.65;16.30;;;665.60;1536.00;;;;;;5447038;26;20328;-72
2024/04/26 05:32:10;;;;;;;17.25;14.52;;;666.00;1484.80;;;;;;5447275;26;19998;-74
2024/04/26 05:34:36;;;;;;;13.65;12.30;;;666.30;1459.20;;;;;;5447324;26;20010;-78
2024/04/26 05:37:02;;;;;;;14.88;13.43;;;691.60;1408.00;;;;;;5445915;26;20429;-79
2024/04/26 05:39:28;;;;;;;16.73;12.00;;;717.20;1382.40;;;;;;5447244;26;19997;-77
2024/04/26 05:41:54;;;;;;;25.77;19.33;;;717.10;1382.40;;;;;;5446822;26;20018;-77
2024/04/26 05:44:20;;;;;;;19.42;17.58;;;742.50;1356.80;;;;;;5446514;26;19994;-77
2024/04/26 05:46:46;;;;;;;13.75;12.40;;;742.70;1356.80;;;;;;5447000;26;20353;-75
2024/04/26 05:49:13;;;;;;;16.38;13.15;;;743.00;1331.20;;;;;;5444499;26;20459;-74
2024/04/26 05:51:38;;;;;;;14.40;12.90;;;743.30;1305.60;;;;;;5446761;26;20075;-75
2024/04/26 05:54:04;;;;;;;14.38;12.88;;;768.50;1280.00;;;;;;5446804;26;19994;-75
2024/04/26 05:56:31;;;;;;;13.60;10.73;;;768.50;1280.00;;;;;;5446404;26;20027;-76
2024/04/26 05:58:57;;;;;;;15.68;14.07;;;793.80;1254.40;;;;;;5447745;26;20003;-75
2024/04/26 06:01:23;;;;;;;18.92;16.70;;;794.50;1228.80;;;;;;5446542;26;20459;-75
2024/04/26 06:03:48;;;;;;;18.67;16.73;;;819.30;1228.80;;;;;;5446473;26;20022;-76
2024/04/26 06:06:14;;;;;;;15.85;14.15;;;819.90;1203.20;;;;;;5446603;26;20010;-75
2024/04/26 06:08:40;;;;;;;15.20;13.70;;;844.90;1177.60;;;;;;5446403;26;20023;-77
2024/04/26 06:11:06;;;;;;;17.13;15.52;;;845.30;1177.60;;;;;;5446466;26;20009;-75
2024/04/26 06:13:33;;;;;;;17.90;16.50;;;870.40;1126.40;;;;;;5446358;26;20005;-75
2024/04/26 06:16:02;;;;;;;11.98;10.77;;;845.70;1152.00;;;;;;5446167;26;20007;-76
2024/04/26 06:18:28;;;;;;;22.83;20.55;;;870.50;1152.00;;;;;;5447558;26;19994;-76
2024/04/26 06:20:54;;;;;;;15.75;14.23;;;871.10;1126.40;;;;;;5446437;26;20060;-75
2024/04/26 06:23:20;;;;;;;12.82;10.65;;;870.80;1100.80;;;;;;5446961;26;20002;-76
2024/04/26 06:25:46;;;;;;;12.95;11.38;;;870.80;1100.80;;;;;;5446409;26;20432;-75
2024/04/26 06:28:12;;;;;;;12.07;10.98;;;871.30;1100.80;;;;;;5446834;26;19995;-76
2024/04/26 06:30:38;;;;;;;16.88;15.38;;;896.40;1049.60;;;;;;5446344;26;20014;-75
2024/04/26 06:33:04;;;;;;;19.95;17.95;;;871.30;1075.20;;;;;;5445545;26;20436;-76
2024/04/26 06:35:30;;;;;;;17.73;16.08;;;896.40;1049.60;;;;;;5445336;26;19994;-75
2024/04/26 06:37:55;;;;;;;17.95;16.33;;;896.60;1049.60;;;;;;5446817;26;20656;-75
2024/04/26 06:40:23;;;;;;;19.17;17.27;;;896.00;1049.60;;;;;;5445892;26;19995;-76
2024/04/26 06:42:49;;;;;;;19.75;17.95;;;921.80;1049.60;;;;;;5446849;26;20013;-77
2024/04/26 06:45:15;;;;;;;22.60;20.58;;;921.80;1049.60;;;;;;5446158;26;20015;-76
2024/04/26 06:47:40;;;;;;;13.57;12.45;;;922.00;1024.00;;;;;;5446640;26;19999;-75
2024/04/26 06:50:06;;;;;;;10.98;10.07;;;921.70;1049.60;;;;;;5445784;26;20000;-75
2024/04/26 06:52:32;;;;;;;13.60;11.57;;;922.00;998.40;;;;;;5429437;26;20011;-75
2024/04/26 06:54:58;;;;;;;11.20;10.23;;;947.30;998.40;;;;;;5438874;26;20021;-75
2024/04/26 06:57:24;;;;;;;11.63;10.48;;;922.00;1024.00;;;;;;5446769;26;19995;-76
2024/04/26 06:59:50;;;;;;;10.02;9.23;;;922.20;1024.00;;;;;;5445665;26;19995;-76
2024/04/26 07:02:15;;;;;;;11.25;10.35;;;921.80;1024.00;;;;;;5446675;26;19999;-77
2024/04/26 07:04:41;;;;;;;12.18;11.07;;;947.60;998.40;;;;;;5445336;26;19995;-77
2024/04/26 07:07:07;;;;;;;12.75;11.70;;;922.30;1024.00;;;;;;5446678;26;19995;-76
2024/04/26 07:09:33;;;;;;;13.23;11.63;;;947.70;998.40;;;;;;5444882;26;20085;-75
2024/04/26 07:11:59;;;;;;;13.20;12.02;;;948.00;972.80;;;;;;5446617;26;20052;-75
2024/04/26 07:14:25;;;;;;;13.88;12.50;;;973.00;972.80;;;;;;5445536;26;19994;-77
2024/04/26 07:16:51;;;;;;;16.00;14.55;;;973.00;972.80;;;;;;5446211;26;20064;-76
2024/04/26 07:19:16;;;;;;;16.10;14.45;;;947.30;1024.00;;;;;;5444761;26;20030;-75
2024/04/26 07:21:43;;;;;;;15.15;12.93;;;973.10;998.40;;;;;;5444626;26;19991;-75
2024/04/26 07:24:10;;;;;;;18.75;12.45;;;947.40;998.40;;;;;;5444762;26;20001;-75
2024/04/26 07:26:35;;;;;;;12.95;11.82;;;973.00;972.80;;;;;;5446231;26;20009;-75
2024/04/26 07:29:03;;;;;;;13.32;11.95;;;922.50;998.40;;;;;;5444542;26;20002;-76
2024/04/26 07:31:29;;;;;;;14.05;12.75;;;948.10;972.80;;;;;;5446365;26;20632;-76
2024/04/26 07:33:55;;;;;;;12.80;11.60;;;973.40;947.20;;;;;;5445210;26;19999;-75
2024/04/26 07:36:21;;;;;;;14.73;13.18;;;999.20;947.20;;;;;;5445502;26;20006;-74
2024/04/26 07:38:47;;;;;;;13.48;12.07;;;973.40;947.20;;;;;;5444940;26;20325;-75
2024/04/26 07:41:15;;;;;;;13.40;12.15;;;973.20;947.20;;;;;;5445844;26;19999;-75
2024/04/26 07:43:41;;;;;;;13.55;12.32;;;973.40;947.20;;;;;;5443074;26;20010;-75
2024/04/26 07:46:07;;;;;;;14.45;13.02;;;972.80;998.40;;;;;;5450166;26;20046;-76
2024/04/26 07:48:33;;;;;;;14.35;12.85;;;973.10;972.80;;;;;;5448235;26;20006;-75
2024/04/26 07:50:59;;;;;;;12.13;11.02;;;947.70;998.40;;;;;;5449549;26;19995;-75
2024/04/26 07:53:25;;;;;;;13.00;11.75;;;947.90;972.80;;;;;;5448704;26;19999;-75
2024/04/26 07:55:51;;;;;;;13.20;12.07;;;998.50;972.80;;;;;;5449022;26;20003;-77
2024/04/26 07:58:16;;;;;;;14.18;12.75;;;1024.20;947.20;;;;;;5447961;26;20010;-75
2024/04/26 08:00:43;;;;;;;12.80;11.60;;;1024.90;896.00;;;;;;5448878;26;20042;-75
2024/04/26 08:03:09;;;;;;;12.77;11.75;;;999.00;947.20;;;;;;5448060;26;20480;-76
2024/04/26 08:05:35;;;;;;;12.23;11.23;;;1024.50;921.60;;;;;;5447508;26;20003;-76
2024/04/26 08:08:01;;;;;;;12.05;10.95;;;973.70;921.60;;;;;;5448120;26;19998;-76
2024/04/26 08:10:27;;;;;;;10.38;9.48;;;1024.40;896.00;;;;;;5448461;26;19995;-75
2024/04/26 08:12:53;;;;;;;11.55;10.63;;;1049.70;921.60;;;;;;5448157;26;20003;-76
2024/04/26 08:15:20;;;;;;;10.63;9.73;;;1075.20;896.00;;;;;;5448583;26;19991;-76
2024/04/26 08:17:46;;;;;;;9.65;8.90;;;998.60;947.20;;;;;;5448941;26;20013;-75
2024/04/26 08:20:13;;;;;;;10.60;9.75;;;1024.20;921.60;;;;;;5445958;26;19999;-76
2024/04/26 08:22:40;;;;;;;10.80;9.90;;;973.20;921.60;;;;;;5448676;26;20369;-76
2024/04/26 08:25:06;;;;;;;9.85;8.95;;;922.50;947.20;;;;;;5447651;26;19998;-75
2024/04/26 08:27:32;;;;;;;10.80;9.90;;;947.40;921.60;;;;;;5448320;26;20005;-75
2024/04/26 08:29:57;;;;;;;9.80;8.80;;;896.90;972.80;;;;;;5448727;26;19999;-75
2024/04/26 08:32:25;;;;;;;12.15;10.95;;;845.60;1024.00;;;;;;5447549;26;20321;-75
2024/04/26 08:34:52;;;;;;;9.40;8.48;;;819.30;1049.60;;;;;;5447187;26;20401;-75
2024/04/26 08:37:19;;;;;;;8.25;7.45;;;768.40;1126.40;;;;;;5448627;26;19995;-75
2024/04/26 08:39:46;;;;;;;11.35;7.32;;;717.30;1177.60;;;;;;5445634;26;20547;-76
2024/04/26 08:42:14;;;;;;;9.90;6.88;;;691.70;1177.60;;;;;;5447692;26;20436;-76
2024/04/26 08:44:41;;;;;;;9.68;8.27;;;640.10;1280.00;;;;;;5447280;26;19999;-76
2024/04/26 08:47:10;;;;;;;11.30;8.35;;;640.50;1280.00;;;;;;5448311;26;20472;-75
2024/04/26 08:49:39;;;;;;;9.98;6.78;;;614.80;1305.60;;;;;;5447796;26;19999;-76
2024/04/26 08:52:08;;;;;;;8.70;6.10;;;615.10;1305.60;;;;;;5448956;26;20071;-75
2024/04/26 08:54:35;;;;;;;7.57;6.05;;;614.70;1331.20;;;;;;5447138;26;20026;-75
2024/04/26 08:57:02;;;;;;;8.52;4.90;;;614.60;1305.60;;;;;;5446463;26;20003;-76
2024/04/26 09:00:03;;;;;;;26.05;15.30;;;589.20;1331.20;;;;;;5447443;26;20010;-76
2024/04/26 09:02:29;;;;;;;7.88;5.50;;;589.40;1356.80;;;;;;5445069;26;19999;-76
2024/04/26 09:04:56;;;;;;;8.90;7.15;;;589.00;1356.80;;;;;;5447292;26;20006;-77
2024/04/26 09:07:22;;;;;;;7.82;5.30;;;564.10;1382.40;;;;;;5448572;26;19995;-75
2024/04/26 09:09:48;;;;;;;7.07;4.93;;;589.10;1382.40;;;;;;5446691;26;20328;-75
2024/04/26 09:12:15;;;;;;;10.52;4.40;;;589.30;1356.80;;;;;;5447898;26;20075;-75
2024/04/26 09:14:41;;;;;;;9.25;6.30;;;589.20;1331.20;;;;;;5444820;26;20020;-76
2024/04/26 09:17:11;;;;;;;9.25;5.20;;;589.40;1382.40;;;;;;5448353;26;19999;-74
2024/04/26 09:19:38;;;;;;;18.90;10.95;;;589.40;1356.80;;;;;;5447558;26;20007;-75
2024/04/26 09:22:06;;;;;;;6.38;5.15;;;589.40;1331.20;;;;;;5447834;26;20402;-75
2024/04/26 09:24:32;;;;;;;7.93;4.20;;;589.30;1408.00;;;;;;5446703;26;20018;-77
2024/04/26 09:26:58;;;;;;;8.30;5.13;;;589.10;1433.60;;;;;;5448634;26;20509;-75
2024/04/26 09:29:27;;;;;;;7.05;4.85;;;589.30;1382.40;;;;;;5446935;26;20006;-77
2024/04/26 09:32:03;;;;;;;10.20;5.45;;;589.60;1356.80;;;;;;5447981;26;20021;-75
2024/04/26 09:34:40;;;;;;;5.30;3.83;;;589.70;1356.80;;;;;;5446745;26;20003;-76
2024/04/26 09:37:09;;;;;;;6.07;4.28;;;589.70;1331.20;;;;;;5447666;26;20013;-75
2024/04/26 09:39:37;;;;;;;12.25;6.32;;;589.60;1305.60;;;;;;5448073;26;20003;-75
2024/04/26 09:42:05;;;;;;;10.85;7.55;;;589.40;1305.60;;;;;;5446763;26;20018;-77
2024/04/26 09:44:33;;;;;;;8.30;5.95;;;589.30;1356.80;;;;;;5447542;26;19999;-76
2024/04/26 09:47:01;;;;;;;10.38;6.03;;;589.30;1382.40;;;;;;5446770;26;19998;-74
2024/04/26 09:49:27;;;;;;;9.05;6.45;;;589.20;1382.40;;;;;;5447760;26;20010;-75
2024/04/26 09:51:55;;;;;;;5.10;4.13;;;589.00;1356.80;;;;;;5444492;26;19995;-75
2024/04/26 09:54:22;;;;;;;7.80;4.53;;;588.90;1356.80;;;;;;5446962;26;19998;-74
2024/04/26 09:56:48;;;;;;;6.80;4.07;;;563.70;1356.80;;;;;;5447104;26;20006;-76
2024/04/26 09:59:15;;;;;;;8.73;4.55;;;538.30;1382.40;;;;;;5446957;26;20038;-75
2024/04/26 10:01:42;;;;;;;5.18;4.03;;;538.50;1408.00;;;;;;5446132;26;20006;-76
2024/04/26 10:04:08;;;;;;;6.25;4.63;;;563.70;1433.60;;;;;;5447180;26;19998;-76
2024/04/26 10:06:41;;;;;;;6.15;4.93;;;563.20;1433.60;;;;;;5446201;26;20002;-75
2024/04/26 10:09:12;;;;;;;5.78;4.22;;;563.20;1433.60;;;;;;5447484;26;20006;-75
2024/04/26 10:11:52;;;;;;;7.88;4.47;;;563.20;1433.60;;;;;;5444726;26;20457;-76
2024/04/26 10:14:28;;;;;;;5.78;3.83;;;538.50;1382.40;;;;;;5444681;26;20013;-74
2024/04/26 10:17:14;;;;;;;5.25;3.30;;;537.90;1408.00;;;;;;5446473;26;20010;-74
2024/04/26 10:19:41;;;;;;;4.93;4.00;;;538.00;1408.00;;;;;;5445973;26;20720;-76
2024/04/26 10:22:08;;;;;;;5.13;3.72;;;538.10;1408.00;;;;;;5446455;26;20326;-74
2024/04/26 10:24:52;;;;;;;4.45;3.63;;;538.00;1433.60;;;;;;5446542;26;20010;-77
2024/04/26 10:27:28;;;;;;;5.60;3.78;;;;;;;;;;5446060;26;20006;-74
2024/04/26 10:29:54;;;;;;;4.60;3.20;;;537.80;1408.00;;;;;;5446902;26;20010;-76
2024/04/26 10:32:20;;;;;;;4.18;3.35;;;512.60;1408.00;;;;;;5445952;26;20009;-75
2024/04/26 10:34:46;;;;;;;5.38;3.08;;;512.90;1408.00;;;;;;5446510;26;20003;-76
2024/04/26 10:37:16;;;;;;;4.38;3.13;;;538.00;1408.00;;;;;;5445990;26;20361;-75
2024/04/26 10:39:45;;;;;;;5.82;3.38;;;538.40;1433.60;;;;;;5443882;26;20325;-75
2024/04/26 10:42:12;;;;;;;5.03;3.40;;;538.10;1382.40;;;;;;5444254;26;20005;-75
2024/04/26 10:44:41;;;;;;;6.43;3.67;;;512.90;1382.40;;;;;;5446012;26;20031;-76
2024/04/26 10:47:07;;;;;;;5.78;3.58;;;512.40;1408.00;;;;;;5446735;26;19995;-75
2024/04/26 10:49:33;;;;;;;3.25;2.47;;;512.90;1433.60;;;;;;5444733;26;20034;-76
2024/04/26 10:52:03;;;;;;;4.00;3.13;;;537.60;1408.00;;;;;;5446939;26;20345;-76
2024/04/26 10:54:33;;;;;;;3.58;2.60;;;538.00;1382.40;;;;;;5445089;26;20006;-74
2024/04/26 10:57:00;;;;;;;7.47;4.40;;;537.90;1459.20;;;;;;5446572;26;19999;-76
2024/04/26 10:59:26;;;;;;;6.63;3.42;;;538.20;1433.60;;;;;;5445566;26;19999;-76
2024/04/26 11:02:00;;;;;;;5.82;3.30;;;538.00;1408.00;;;;;;5445896;26;19999;-74
2024/04/26 11:04:34;;;;;;;5.22;3.60;;;538.20;1382.40;;;;;;5445877;26;20090;-75
2024/04/26 11:07:17;;;;;;;9.82;3.83;;;538.50;1408.00;;;;;;5446161;26;20034;-76
2024/04/26 11:09:48;;;;;;;6.68;3.80;;;538.00;1408.00;;;;;;5442362;26;19999;-75
2024/04/26 11:12:14;;;;;;;7.55;5.55;;;537.70;1408.00;;;;;;5445670;26;20402;-77
2024/04/26 11:14:40;;;;;;;6.40;3.40;;;538.30;1408.00;;;;;;5444440;26;20002;-75
2024/04/26 11:17:08;;;;;;;16.40;8.75;;;538.50;1510.40;;;;;;5446381;26;19998;-75
2024/04/26 11:19:35;;;;;;;23.02;14.40;;;538.50;1510.40;;;;;;5440571;26;19999;-75
2024/04/26 11:22:01;;;;;;;12.10;7.70;;;563.20;1484.80;;;;;;5446180;26;20320;-78
2024/04/26 11:24:27;;;;;;;17.25;10.82;;;563.20;1459.20;;;;;;5444087;26;20010;-75
2024/04/26 11:26:54;;;;;;;4.97;3.15;;;563.40;1408.00;;;;;;5446187;26;20396;-74
2024/04/26 11:29:20;;;;;;;6.38;4.00;;;538.20;1382.40;;;;;;5444630;26;19999;-75
2024/04/26 11:31:47;;;;;;;5.00;3.72;;;538.50;1433.60;;;;;;5445214;26;19999;-78
2024/04/26 11:34:13;;;;;;;9.02;4.55;;;538.40;1382.40;;;;;;5420608;26;20013;-76
2024/04/26 11:36:44;;;;;;;6.53;3.38;;;538.30;1356.80;;;;;;5445905;26;20007;-75
2024/04/26 11:39:10;;;;;;;10.32;6.53;;;538.50;1356.80;;;;;;5443524;26;20026;-75
2024/04/26 11:41:36;;;;;;;4.30;2.90;;;563.20;1408.00;;;;;;5445562;26;20013;-75
2024/04/26 11:44:03;;;;;;;7.50;3.45;;;563.50;1459.20;;;;;;5443758;26;20055;-77
2024/04/26 11:46:29;;;;;;;8.07;5.05;;;563.80;1433.60;;;;;;5445725;26;19998;-74
2024/04/26 11:48:54;;;;;;;10.82;5.82;;;564.00;1408.00;;;;;;5444237;26;19999;-75
2024/04/26 11:51:21;;;;;;;17.98;10.27;;;563.60;1382.40;;;;;;5444777;26;20023;-77
2024/04/26 11:53:48;;;;;;;379.73;241.95;;;563.80;1382.40;;;;;;5443528;26;19999;-75
2024/04/26 11:56:14;;;;;;;27.83;16.92;;;563.90;1382.40;;;;;;5445530;26;20007;-75
2024/04/26 11:58:40;;;;;;;130.77;92.22;;;564.10;1408.00;;;;;;5441807;26;20014;-75
2024/04/26 12:01:06;;;;;;;122.50;82.30;;;589.00;1382.40;;;;;;5445402;26;20077;-79
2024/04/26 12:03:32;;;;;;;80.32;57.50;;;588.80;1382.40;;;;;;5442961;26;20065;-75